Time;durP1;ratioP1;P1;durP2;ratioP2;P2;SDS_P1;SDS_P2;PMS_P1;PMS_P2;Temp;Humidity;BMP_temperature;BMP_pressure;BME280_temperature;BME280_humidity;BME280_pressure;Samples;Min_cycle;Max_cycle;Signal;HPM_P1;HPM_P2
2022/08/25 00:01:21;;;;;;;2.50;1.50;;;22.90;99.90;;;;;;5111098;27;20093;-67
2022/08/25 00:03:47;;;;;;;7.03;1.50;;;22.90;99.90;;;;;;5109601;27;20127;-66
2022/08/25 00:06:14;;;;;;;3.45;1.17;;;22.90;99.90;;;;;;5111283;27;20529;-65
2022/08/25 00:08:41;;;;;;;8.55;1.27;;;22.90;99.90;;;;;;5116577;27;20702;-65
2022/08/25 00:11:11;;;;;;;3.60;1.40;;;22.90;99.90;;;;;;5110685;27;20059;-66
2022/08/25 00:13:40;;;;;;;2.30;1.23;;;22.90;99.90;;;;;;5110060;27;20043;-67
2022/08/25 00:16:06;;;;;;;5.63;1.50;;;22.90;99.90;;;;;;5093449;27;20042;-65
2022/08/25 00:18:32;;;;;;;3.25;1.45;;;22.80;99.90;;;;;;5110129;27;20042;-65
2022/08/25 00:20:57;;;;;;;5.63;1.52;;;22.80;99.90;;;;;;5111035;27;20142;-66
2022/08/25 00:23:23;;;;;;;5.47;1.40;;;22.80;99.90;;;;;;5093892;27;20618;-66
2022/08/25 00:25:49;;;;;;;2.95;1.30;;;22.70;99.90;;;;;;5110545;27;20043;-66
2022/08/25 00:28:15;;;;;;;4.93;1.80;;;22.60;99.90;;;;;;5128999;27;20038;-66
2022/08/25 00:30:41;;;;;;;5.38;1.52;;;22.60;99.90;;;;;;5110828;27;20038;-66
2022/08/25 00:33:07;;;;;;;4.03;1.70;;;22.60;99.90;;;;;;5109329;27;20249;-67
2022/08/25 00:35:34;;;;;;;6.50;1.42;;;22.60;99.90;;;;;;5128685;27;20652;-66
2022/08/25 00:37:59;;;;;;;4.53;1.67;;;22.60;99.90;;;;;;5099512;27;20126;-65
2022/08/25 00:40:27;;;;;;;5.35;1.67;;;22.60;99.90;;;;;;5128724;27;20049;-65
2022/08/25 00:42:53;;;;;;;6.00;1.60;;;22.50;99.90;;;;;;5110340;27;20086;-67
2022/08/25 00:45:19;;;;;;;3.58;1.45;;;22.60;99.90;;;;;;5109727;27;20454;-66
2022/08/25 00:47:45;;;;;;;4.93;1.73;;;22.50;99.90;;;;;;5112602;27;20133;-66
2022/08/25 00:50:11;;;;;;;4.15;1.60;;;22.50;99.90;;;;;;5096736;27;20469;-66
2022/08/25 00:52:42;;;;;;;2.67;1.30;;;22.60;99.90;;;;;;5097115;27;20125;-66
2022/08/25 00:55:38;;;;;;;4.38;1.80;;;22.50;99.90;;;;;;5117268;27;20492;-66
2022/08/25 00:58:10;;;;;;;5.00;1.52;;;22.50;99.90;;;;;;5093176;27;20654;-67
2022/08/25 01:00:43;;;;;;;3.20;1.40;;;22.50;99.90;;;;;;5119138;27;20438;-66
2022/08/25 01:03:10;;;;;;;5.05;1.50;;;22.50;99.90;;;;;;5133274;27;20070;-67
2022/08/25 01:05:36;;;;;;;3.40;1.40;;;22.50;99.90;;;;;;5131019;27;20675;-66
2022/08/25 01:08:04;;;;;;;3.08;1.70;;;22.50;99.90;;;;;;5087801;27;20061;-67
2022/08/25 01:10:32;;;;;;;2.90;1.85;;;22.40;99.90;;;;;;5114765;27;20047;-65
2022/08/25 01:13:05;;;;;;;4.53;1.30;;;22.30;99.90;;;;;;5114128;27;20144;-66
2022/08/25 01:15:33;;;;;;;5.55;1.70;;;22.30;99.90;;;;;;5114339;27;20412;-66
2022/08/25 01:17:59;;;;;;;5.90;1.70;;;22.30;99.90;;;;;;5113822;27;20207;-67
2022/08/25 01:20:29;;;;;;;6.70;1.58;;;22.30;99.90;;;;;;5114913;27;20421;-66
2022/08/25 01:22:56;;;;;;;4.60;1.58;;;22.20;99.90;;;;;;5097644;27;20038;-66
2022/08/25 01:25:24;;;;;;;2.92;1.60;;;22.20;99.90;;;;;;5114062;27;20049;-66
2022/08/25 01:27:50;;;;;;;4.60;1.80;;;22.10;99.90;;;;;;5113917;27;20102;-66
2022/08/25 01:30:16;;;;;;;3.35;1.90;;;22.10;99.90;;;;;;5086070;27;20111;-65
2022/08/25 01:32:42;;;;;;;3.58;1.42;;;22.10;99.90;;;;;;5132154;27;20062;-66
2022/08/25 01:35:08;;;;;;;3.50;1.70;;;22.10;99.90;;;;;;5113979;27;20567;-66
2022/08/25 01:37:34;;;;;;;4.22;2.15;;;22.10;99.90;;;;;;5113590;27;20519;-67
2022/08/25 01:40:00;;;;;;;6.40;1.83;;;22.10;99.90;;;;;;5118034;27;20031;-65
2022/08/25 01:42:51;;;;;;;3.17;1.70;;;22.00;99.90;;;;;;5106149;27;20058;-66
2022/08/25 01:45:17;;;;;;;5.28;2.00;;;22.00;99.90;;;;;;5095058;27;20060;-66
2022/08/25 01:47:43;;;;;;;3.60;1.75;;;21.90;99.90;;;;;;5113919;27;20476;-66
2022/08/25 01:50:09;;;;;;;4.80;2.25;;;21.90;99.90;;;;;;5114031;27;20038;-66
2022/08/25 01:52:45;;;;;;;5.68;2.00;;;21.90;99.90;;;;;;5106514;27;20049;-66
2022/08/25 01:55:11;;;;;;;4.53;1.92;;;21.90;99.90;;;;;;5131747;27;20456;-66
2022/08/25 01:57:37;;;;;;;4.75;2.30;;;21.80;99.90;;;;;;5112366;27;20121;-67
2022/08/25 02:00:06;;;;;;;5.70;1.83;;;21.80;99.90;;;;;;5130607;27;20035;-65
2022/08/25 02:02:32;;;;;;;6.03;2.13;;;21.70;99.90;;;;;;5113131;27;20042;-66
2022/08/25 02:04:57;;;;;;;3.92;2.15;;;21.70;99.90;;;;;;5117622;27;20043;-67
2022/08/25 02:07:23;;;;;;;6.75;2.30;;;21.60;99.90;;;;;;5113334;27;20601;-66
2022/08/25 02:09:49;;;;;;;4.20;2.30;;;21.50;99.90;;;;;;5112866;27;20047;-66
2022/08/25 02:12:14;;;;;;;6.22;1.90;;;21.50;99.90;;;;;;5113987;27;20469;-66
2022/08/25 02:14:40;;;;;;;4.53;2.38;;;21.50;99.90;;;;;;5113955;27;20050;-66
2022/08/25 02:17:06;;;;;;;4.88;2.28;;;21.50;99.90;;;;;;5117573;27;20219;-66
2022/08/25 02:19:32;;;;;;;5.43;2.15;;;21.40;99.90;;;;;;5131838;27;20035;-66
2022/08/25 02:21:58;;;;;;;4.03;2.17;;;21.20;99.90;;;;;;5096170;27;20354;-66
2022/08/25 02:24:24;;;;;;;4.70;2.22;;;21.20;99.90;;;;;;5094370;27;20124;-66
2022/08/25 02:26:50;;;;;;;6.28;2.10;;;21.20;99.90;;;;;;5112530;27;20552;-67
2022/08/25 02:29:17;;;;;;;4.45;2.30;;;21.10;99.90;;;;;;5111373;27;20042;-66
2022/08/25 02:31:43;;;;;;;5.97;1.90;;;21.20;99.90;;;;;;5114087;27;20047;-66
2022/08/25 02:34:09;;;;;;;6.25;2.40;;;21.20;99.90;;;;;;5112680;27;20476;-65
2022/08/25 02:36:36;;;;;;;4.18;2.15;;;21.10;99.90;;;;;;5112422;27;20373;-66
2022/08/25 02:39:04;;;;;;;5.38;2.35;;;21.10;99.90;;;;;;5112598;27;20031;-66
2022/08/25 02:41:30;;;;;;;6.35;2.22;;;21.00;99.90;;;;;;5111225;27;20110;-66
2022/08/25 02:43:56;;;;;;;5.80;2.45;;;21.00;99.90;;;;;;5112792;27;20038;-66
2022/08/25 02:46:23;;;;;;;4.72;2.47;;;20.90;99.90;;;;;;5112581;27;20042;-67
2022/08/25 02:48:51;;;;;;;5.03;2.60;;;20.90;99.90;;;;;;5095069;27;20285;-67
2022/08/25 02:51:19;;;;;;;5.28;2.50;;;20.80;99.90;;;;;;5112116;27;20296;-66
2022/08/25 02:53:45;;;;;;;5.63;2.50;;;20.80;99.90;;;;;;5095082;27;20289;-66
2022/08/25 02:56:13;;;;;;;5.53;2.47;;;20.70;99.90;;;;;;5094233;27;20666;-67
2022/08/25 02:58:40;;;;;;;3.65;2.40;;;20.70;99.90;;;;;;5112813;27;20436;-67
2022/08/25 03:01:06;;;;;;;3.63;2.65;;;20.60;99.90;;;;;;5130558;27;20046;-66
2022/08/25 03:03:32;;;;;;;4.43;2.80;;;20.60;99.90;;;;;;5111143;27;20058;-67
2022/08/25 03:05:59;;;;;;;6.57;2.80;;;20.60;99.90;;;;;;5112364;27;20038;-65
2022/08/25 03:08:25;;;;;;;4.15;3.13;;;20.70;99.90;;;;;;5118194;27;20057;-66
2022/08/25 03:10:51;;;;;;;4.30;3.00;;;20.70;99.90;;;;;;5111954;27;20077;-65
2022/08/25 03:13:17;;;;;;;4.78;2.85;;;20.70;99.90;;;;;;5111879;27;20412;-67
2022/08/25 03:15:44;;;;;;;6.35;3.13;;;20.70;99.90;;;;;;5110733;27;20315;-66
2022/08/25 03:18:10;;;;;;;5.43;2.55;;;20.60;99.90;;;;;;5111713;27;20039;-67
2022/08/25 03:20:37;;;;;;;4.88;2.83;;;20.60;99.90;;;;;;5112027;27;20547;-66
2022/08/25 03:23:05;;;;;;;7.65;3.17;;;20.50;99.90;;;;;;5094167;27;20035;-66
2022/08/25 03:28:15;;;;;;;5.82;3.13;;;20.40;99.90;;;;;;5111050;27;20050;-66
2022/08/25 03:30:41;;;;;;;6.47;3.45;;;20.40;99.90;;;;;;5110823;27;20062;-67
2022/08/25 03:33:08;;;;;;;7.38;3.40;;;20.30;99.90;;;;;;5111186;27;20611;-66
2022/08/25 03:35:33;;;;;;;7.35;3.50;;;20.20;99.90;;;;;;5130374;27;20109;-67
2022/08/25 03:37:59;;;;;;;6.38;3.00;;;20.20;99.90;;;;;;5094200;27;20039;-67
2022/08/25 03:40:25;;;;;;;5.68;2.83;;;20.20;99.90;;;;;;5111479;27;20045;-66
2022/08/25 03:42:51;;;;;;;4.10;2.88;;;20.20;99.90;;;;;;5094597;27;20098;-66
2022/08/25 03:45:17;;;;;;;5.70;3.30;;;20.20;99.90;;;;;;5110781;27;20034;-66
2022/08/25 03:47:47;;;;;;;6.90;3.65;;;20.20;99.90;;;;;;5111225;27;20050;-66
2022/08/25 03:50:15;;;;;;;7.40;3.60;;;20.20;99.90;;;;;;5114788;27;20047;-66
2022/08/25 03:52:41;;;;;;;7.90;3.85;;;20.30;99.90;;;;;;5129596;27;20479;-66
2022/08/25 03:55:09;;;;;;;5.40;4.00;;;20.30;99.90;;;;;;5093841;27;20110;-66
2022/08/25 03:57:35;;;;;;;4.85;3.75;;;20.20;99.90;;;;;;5111267;27;20225;-66
2022/08/25 04:00:03;;;;;;;6.00;3.80;;;20.20;99.90;;;;;;5111551;27;20039;-66
2022/08/25 04:02:32;;;;;;;5.82;4.20;;;20.20;99.90;;;;;;5112001;27;20188;-65
2022/08/25 04:04:58;;;;;;;4.57;3.53;;;20.20;99.90;;;;;;5094674;27;20398;-66
2022/08/25 04:07:24;;;;;;;7.47;4.22;;;20.10;99.90;;;;;;5110881;27;20177;-66
2022/08/25 04:09:49;;;;;;;3.80;3.38;;;20.10;99.90;;;;;;5111112;27;20421;-66
2022/08/25 04:12:15;;;;;;;7.07;3.50;;;20.10;99.90;;;;;;5094662;27;20050;-66
2022/08/25 04:14:41;;;;;;;6.38;3.05;;;20.10;99.90;;;;;;5110504;27;20571;-66
2022/08/25 04:17:07;;;;;;;6.22;3.92;;;20.10;99.90;;;;;;5128220;27;20026;-66
2022/08/25 04:19:34;;;;;;;8.63;3.80;;;20.10;99.90;;;;;;5101475;27;20034;-67
2022/08/25 04:22:00;;;;;;;4.93;4.00;;;20.10;99.90;;;;;;5113456;27;20043;-66
2022/08/25 04:24:26;;;;;;;6.85;3.58;;;20.10;99.90;;;;;;5117477;27;20034;-66
2022/08/25 04:26:52;;;;;;;8.55;3.53;;;20.10;99.90;;;;;;5116129;27;20071;-66
2022/08/25 04:29:20;;;;;;;5.13;3.85;;;20.00;99.90;;;;;;5110898;27;20334;-66
2022/08/25 04:31:48;;;;;;;7.57;3.90;;;20.10;99.90;;;;;;5116564;27;20047;-66
2022/08/25 04:34:16;;;;;;;4.10;3.50;;;20.00;99.90;;;;;;5107192;27;20046;-66
2022/08/25 04:36:41;;;;;;;8.18;3.97;;;20.00;99.90;;;;;;5120953;27;20488;-66
2022/08/25 04:39:07;;;;;;;7.43;4.15;;;20.10;99.90;;;;;;5100236;27;20340;-66
2022/08/25 04:41:33;;;;;;;6.85;3.95;;;20.10;99.90;;;;;;5117542;27;20034;-67
2022/08/25 04:44:00;;;;;;;7.65;3.97;;;20.00;99.90;;;;;;5117777;27;20668;-66
2022/08/25 04:46:29;;;;;;;5.88;4.07;;;20.00;99.90;;;;;;5100638;27;20034;-66
2022/08/25 04:48:56;;;;;;;3.95;3.15;;;20.00;99.90;;;;;;5117023;27;20397;-66
2022/08/25 04:51:26;;;;;;;6.38;4.00;;;20.00;99.90;;;;;;5117507;27;20057;-66
2022/08/25 04:53:53;;;;;;;6.95;3.78;;;20.00;99.90;;;;;;5116418;27;20508;-66
2022/08/25 04:56:23;;;;;;;6.25;3.90;;;20.00;99.90;;;;;;5117004;27;20208;-65
2022/08/25 04:58:50;;;;;;;4.32;3.85;;;20.10;99.90;;;;;;5117024;27;20137;-65
2022/08/25 05:01:18;;;;;;;5.50;3.58;;;20.10;99.90;;;;;;5117433;27;20273;-65
2022/08/25 05:03:46;;;;;;;9.88;4.50;;;20.10;99.90;;;;;;5098964;27;20043;-65
2022/08/25 05:06:12;;;;;;;6.07;4.25;;;20.10;99.90;;;;;;5116392;27;20053;-66
2022/08/25 05:08:38;;;;;;;8.18;5.15;;;20.10;99.90;;;;;;5116533;27;20042;-65
2022/08/25 05:11:11;;;;;;;6.22;4.63;;;20.00;99.90;;;;;;5117652;27;20102;-65
2022/08/25 05:13:38;;;;;;;8.55;5.40;;;20.00;99.90;;;;;;5117565;27;20102;-65
2022/08/25 05:16:05;;;;;;;7.97;4.97;;;20.00;99.90;;;;;;5133835;27;20046;-65
2022/08/25 05:18:32;;;;;;;6.78;5.28;;;20.00;99.90;;;;;;5099627;27;20034;-65
2022/08/25 05:21:10;;;;;;;7.85;5.32;;;20.00;99.90;;;;;;5100404;27;20041;-65
2022/08/25 05:23:37;;;;;;;7.82;5.10;;;20.00;99.90;;;;;;5099644;27;20483;-66
2022/08/25 05:26:11;;;;;;;7.97;5.05;;;20.00;99.90;;;;;;5100592;27;20152;-65
2022/08/25 05:28:41;;;;;;;7.57;4.90;;;20.10;99.90;;;;;;5116717;27;20300;-65
2022/08/25 05:31:09;;;;;;;6.45;4.78;;;20.10;99.90;;;;;;5116640;27;20034;-64
2022/08/25 05:33:36;;;;;;;7.93;5.07;;;20.10;99.90;;;;;;5113089;27;20387;-64
2022/08/25 05:36:03;;;;;;;8.00;5.50;;;20.30;99.90;;;;;;5118228;27;20130;-65
2022/08/25 05:38:29;;;;;;;7.47;4.72;;;20.30;99.90;;;;;;5116260;27;20050;-66
2022/08/25 05:41:00;;;;;;;8.13;5.32;;;20.40;99.90;;;;;;5113666;27;20047;-66
2022/08/25 05:43:27;;;;;;;5.90;4.85;;;20.50;99.90;;;;;;5132431;27;20146;-66
2022/08/25 05:45:54;;;;;;;10.40;5.20;;;20.50;99.90;;;;;;5108162;27;20117;-66
2022/08/25 05:48:21;;;;;;;7.15;5.60;;;20.70;99.90;;;;;;5097170;27;20348;-66
2022/08/25 05:50:58;;;;;;;9.48;5.50;;;20.90;99.90;;;;;;5114170;27;20039;-66
2022/08/25 05:53:25;;;;;;;4.10;3.50;;;21.10;99.90;;;;;;5114179;27;20043;-65
2022/08/25 05:55:52;;;;;;;7.60;5.07;;;21.20;99.90;;;;;;5114041;27;20111;-65
2022/08/25 05:58:19;;;;;;;6.45;4.80;;;21.30;99.90;;;;;;5097973;27;20046;-66
2022/08/25 06:00:45;;;;;;;7.18;5.10;;;21.40;99.90;;;;;;5133969;27;20034;-66
2022/08/25 06:03:11;;;;;;;6.95;4.40;;;21.50;99.90;;;;;;5114992;27;20180;-66
2022/08/25 06:05:37;;;;;;;4.75;3.85;;;21.50;99.90;;;;;;5117790;27;20111;-66
2022/08/25 06:08:03;;;;;;;6.60;4.63;;;21.60;99.90;;;;;;5113352;27;20697;-66
2022/08/25 06:10:29;;;;;;;7.40;4.55;;;21.70;99.90;;;;;;5113447;27;20137;-65
2022/08/25 06:12:55;;;;;;;5.03;4.55;;;21.80;99.90;;;;;;5096864;27;20043;-65
2022/08/25 06:15:23;;;;;;;5.75;4.57;;;21.80;99.90;;;;;;5096372;27;20038;-66
2022/08/25 06:17:50;;;;;;;6.35;4.85;;;21.90;99.90;;;;;;5096667;27;20842;-66
2022/08/25 06:20:25;;;;;;;7.55;4.20;;;21.90;99.90;;;;;;5115006;27;20047;-67
2022/08/25 06:22:52;;;;;;;6.60;5.10;;;22.00;99.90;;;;;;5132684;27;20034;-66
2022/08/25 06:25:20;;;;;;;5.55;4.75;;;22.00;99.90;;;;;;5114044;27;20439;-66
2022/08/25 06:27:46;;;;;;;7.95;5.13;;;22.10;99.90;;;;;;5113978;27;20332;-66
2022/08/25 06:30:15;;;;;;;5.85;5.07;;;22.10;99.90;;;;;;5113892;27;20042;-66
2022/08/25 06:32:42;;;;;;;5.68;4.70;;;22.10;99.90;;;;;;5113779;27;20031;-66
2022/08/25 06:35:11;;;;;;;7.07;5.00;;;22.20;99.90;;;;;;5113707;27;20042;-65
2022/08/25 06:37:37;;;;;;;8.70;4.85;;;22.20;99.90;;;;;;5115082;27;20054;-65
2022/08/25 06:40:08;;;;;;;8.45;5.80;;;22.20;99.90;;;;;;5113916;27;20051;-66
2022/08/25 06:42:34;;;;;;;6.20;5.30;;;22.30;99.90;;;;;;5114526;27;20053;-65
2022/08/25 06:45:00;;;;;;;6.32;4.45;;;22.30;99.90;;;;;;5119238;27;20038;-65
2022/08/25 06:47:26;;;;;;;8.93;5.70;;;22.50;99.90;;;;;;5132737;27;20026;-65
2022/08/25 06:49:52;;;;;;;8.18;5.30;;;22.40;99.90;;;;;;5115315;27;20038;-65
2022/08/25 06:52:18;;;;;;;9.05;5.85;;;22.50;99.90;;;;;;5114170;27;20058;-66
2022/08/25 06:54:44;;;;;;;9.60;5.28;;;22.60;99.90;;;;;;5112692;27;20038;-66
2022/08/25 06:57:10;;;;;;;5.78;5.18;;;22.70;99.90;;;;;;5101990;27;20102;-66
2022/08/25 06:59:36;;;;;;;7.22;5.00;;;22.80;99.90;;;;;;5112438;27;20201;-66
2022/08/25 07:02:04;;;;;;;6.85;4.72;;;22.90;99.90;;;;;;5116887;27;20118;-67
2022/08/25 07:04:30;;;;;;;8.40;4.55;;;23.00;99.90;;;;;;5114261;27;20523;-67
2022/08/25 07:06:56;;;;;;;7.63;5.40;;;23.00;99.90;;;;;;5096739;27;20050;-67
2022/08/25 07:09:22;;;;;;;6.03;4.93;;;23.10;99.90;;;;;;5114352;27;20085;-67
2022/08/25 07:11:47;;;;;;;7.32;5.07;;;23.10;99.90;;;;;;5114483;27;20046;-66
2022/08/25 07:14:16;;;;;;;9.23;5.20;;;23.10;99.90;;;;;;5114677;27;20146;-66
2022/08/25 07:16:42;;;;;;;6.05;4.35;;;23.30;99.90;;;;;;5130959;27;20038;-67
2022/08/25 07:19:10;;;;;;;7.80;4.55;;;23.30;99.90;;;;;;5097102;27;20141;-67
2022/08/25 07:21:39;;;;;;;6.20;5.20;;;23.30;99.90;;;;;;5113781;27;20366;-67
2022/08/25 07:24:10;;;;;;;9.55;5.55;;;23.40;99.90;;;;;;5114019;27;20510;-67
2022/08/25 07:26:38;;;;;;;6.17;4.50;;;23.50;99.90;;;;;;5097820;27;20038;-66
2022/08/25 07:29:08;;;;;;;8.65;5.63;;;23.40;99.90;;;;;;5114581;27;20366;-66
2022/08/25 07:31:34;;;;;;;9.35;5.90;;;23.50;99.90;;;;;;5114029;27;20046;-67
2022/08/25 07:36:44;;;;;;;8.60;5.35;;;23.70;99.90;;;;;;5114243;27;20102;-66
2022/08/25 07:39:10;;;;;;;8.95;5.43;;;23.60;99.90;;;;;;5114989;27;20039;-67
2022/08/25 07:41:38;;;;;;;8.10;5.65;;;23.70;99.90;;;;;;5113443;27;20035;-67
2022/08/25 07:44:05;;;;;;;6.47;5.30;;;23.80;99.90;;;;;;5104025;27;20042;-66
2022/08/25 07:46:30;;;;;;;8.25;5.20;;;24.00;99.90;;;;;;5097325;27;20397;-66
2022/08/25 07:48:56;;;;;;;6.72;5.35;;;24.00;99.90;;;;;;5113115;27;20053;-66
2022/08/25 07:51:22;;;;;;;5.53;4.78;;;24.10;99.90;;;;;;5113046;27;20535;-66
2022/08/25 07:53:47;;;;;;;7.40;5.45;;;24.10;99.90;;;;;;5113232;27;20046;-66
2022/08/25 07:56:15;;;;;;;5.85;4.97;;;24.30;99.90;;;;;;5129915;27;20246;-66
2022/08/25 07:58:42;;;;;;;7.63;5.78;;;24.40;99.90;;;;;;5095904;27;20409;-67
2022/08/25 08:01:17;;;;;;;9.93;5.32;;;24.40;99.90;;;;;;5113341;27;20242;-67
2022/08/25 08:03:43;;;;;;;6.90;5.15;;;24.50;99.90;;;;;;5112021;27;20045;-68
2022/08/25 08:06:11;;;;;;;7.60;5.28;;;24.70;99.90;;;;;;5113494;27;20484;-68
2022/08/25 08:08:37;;;;;;;8.20;5.68;;;24.70;99.90;;;;;;5096480;27;20412;-67
2022/08/25 08:11:04;;;;;;;5.93;5.03;;;24.80;99.90;;;;;;5113515;27;20377;-66
2022/08/25 08:13:31;;;;;;;7.45;5.32;;;24.90;99.90;;;;;;5113633;27;20111;-66
2022/08/25 08:15:57;;;;;;;7.70;5.30;;;25.00;99.90;;;;;;5113431;27;20118;-66
2022/08/25 08:18:23;;;;;;;8.38;5.30;;;25.00;99.90;;;;;;5111958;27;20042;-66
2022/08/25 08:20:48;;;;;;;7.15;5.35;;;25.10;99.90;;;;;;5098178;27;20065;-66
2022/08/25 08:23:15;;;;;;;6.05;4.90;;;25.20;99.90;;;;;;5083529;27;20066;-66
2022/08/25 08:25:41;;;;;;;11.25;6.47;;;25.30;99.90;;;;;;5096207;27;20035;-66
2022/08/25 08:28:07;;;;;;;8.63;4.95;;;25.20;99.90;;;;;;5114630;27;20042;-66
2022/08/25 08:30:33;;;;;;;8.25;5.78;;;25.60;99.90;;;;;;5113885;27;20571;-67
2022/08/25 08:32:59;;;;;;;13.15;6.22;;;25.60;99.90;;;;;;5112637;27;20325;-67
2022/08/25 08:35:24;;;;;;;7.60;5.50;;;25.70;99.90;;;;;;5099239;27;20049;-67
2022/08/25 08:37:50;;;;;;;10.27;6.10;;;25.90;99.90;;;;;;5080544;27;20043;-66
2022/08/25 08:40:18;;;;;;;7.90;6.20;;;26.00;99.90;;;;;;5114600;27;20607;-66
2022/08/25 08:43:05;;;;;;;9.75;5.95;;;26.00;99.90;;;;;;5115550;27;20473;-66
2022/08/25 08:45:50;;;;;;;7.15;5.78;;;25.90;99.90;;;;;;5113144;27;20071;-67
2022/08/25 08:48:45;;;;;;;7.97;5.93;;;26.00;99.90;;;;;;5113962;27;20046;-66
2022/08/25 08:51:24;;;;;;;12.18;5.65;;;26.20;99.90;;;;;;5111934;27;20322;-66
2022/08/25 08:53:59;;;;;;;8.70;6.30;;;26.20;99.90;;;;;;5133664;27;20049;-67
2022/08/25 08:56:38;;;;;;;8.90;6.22;;;26.40;99.90;;;;;;5134540;27;20039;-67
2022/08/25 08:59:20;;;;;;;9.05;6.13;;;26.60;99.90;;;;;;5106534;27;20592;-67
2022/08/25 09:01:55;;;;;;;9.73;5.53;;;26.70;99.90;;;;;;5134402;27;20043;-67
2022/08/25 09:04:36;;;;;;;8.27;5.78;;;27.00;99.90;;;;;;5096971;27;20039;-67
2022/08/25 09:07:07;;;;;;;7.95;6.40;;;27.40;99.90;;;;;;5083996;27;20334;-67
2022/08/25 09:09:34;;;;;;;10.32;5.32;;;27.40;99.90;;;;;;5118051;27;20059;-67
2022/08/25 09:12:12;;;;;;;10.82;6.13;;;27.30;99.90;;;;;;5119068;27;20352;-66
2022/08/25 09:14:47;;;;;;;10.50;6.00;;;27.90;99.90;;;;;;5102316;27;20042;-66
2022/08/25 09:17:34;;;;;;;8.63;5.90;;;28.10;99.90;;;;;;5119242;27;20059;-66
2022/08/25 09:20:13;;;;;;;9.05;6.25;;;28.20;99.90;;;;;;5068954;27;20086;-66
2022/08/25 09:22:46;;;;;;;5.97;5.38;;;28.30;99.90;;;;;;5100464;27;20322;-67
2022/08/25 09:25:38;;;;;;;9.18;6.05;;;28.50;99.90;;;;;;5134014;27;20054;-66
2022/08/25 09:28:41;;;;;;;7.35;5.38;;;28.40;99.90;;;;;;5118460;27;20073;-66
2022/08/25 09:31:30;;;;;;;8.48;5.97;;;28.40;99.90;;;;;;5100759;27;20043;-67
2022/08/25 09:33:58;;;;;;;7.38;5.57;;;28.40;99.90;;;;;;5117057;27;20724;-67
2022/08/25 09:36:25;;;;;;;8.45;5.60;;;28.50;99.90;;;;;;5137035;27;20065;-67
2022/08/25 09:38:51;;;;;;;10.43;6.00;;;28.70;99.90;;;;;;5137595;27;20687;-67
2022/08/25 09:41:34;;;;;;;8.20;5.60;;;28.70;99.90;;;;;;5118254;27;20036;-67
2022/08/25 09:44:00;;;;;;;6.85;5.50;;;28.80;99.90;;;;;;5118120;27;20288;-67
2022/08/25 09:46:28;;;;;;;8.85;5.82;;;28.90;99.90;;;;;;5100612;27;20345;-67
2022/08/25 09:49:10;;;;;;;9.18;5.68;;;29.00;99.90;;;;;;5100598;27;20103;-67
2022/08/25 09:51:40;;;;;;;8.73;5.88;;;29.10;99.90;;;;;;5136202;27;20786;-67
2022/08/25 09:54:26;;;;;;;11.48;5.55;;;28.90;99.90;;;;;;5115563;27;20042;-67
2022/08/25 09:56:55;;;;;;;9.57;6.03;;;28.90;99.90;;;;;;5116297;27;20082;-66
2022/08/25 09:59:26;;;;;;;9.88;5.50;;;29.10;99.90;;;;;;5115666;27;20359;-66
2022/08/25 10:01:54;;;;;;;12.15;5.80;;;29.40;99.90;;;;;;5099036;27;20575;-66
2022/08/25 10:04:31;;;;;;;8.38;4.95;;;29.40;99.90;;;;;;5116236;27;20487;-66
2022/08/25 10:06:59;;;;;;;8.23;4.50;;;29.70;99.90;;;;;;5116426;27;20544;-66
2022/08/25 10:09:37;;;;;;;7.60;5.13;;;30.00;99.90;;;;;;5114750;27;20063;-66
2022/08/25 10:12:23;;;;;;;6.18;4.57;;;30.10;99.90;;;;;;5097784;27;20038;-66
2022/08/25 10:14:50;;;;;;;6.68;4.50;;;30.10;99.90;;;;;;5113760;27;20423;-66
2022/08/25 10:17:28;;;;;;;5.97;4.88;;;29.90;99.90;;;;;;5114899;27;20078;-66
2022/08/25 10:20:04;;;;;;;11.63;4.95;;;29.90;99.90;;;;;;5114961;27;20491;-65
2022/08/25 10:22:33;;;;;;;8.45;5.13;;;29.70;99.90;;;;;;5096591;27;20035;-66
2022/08/25 10:24:59;;;;;;;8.63;5.03;;;29.90;99.90;;;;;;5096105;27;20139;-65
2022/08/25 10:27:51;;;;;;;9.27;4.78;;;29.90;99.90;;;;;;5132124;27;20405;-65
2022/08/25 10:30:34;;;;;;;8.40;5.00;;;30.00;99.90;;;;;;5100413;27;20188;-66
2022/08/25 10:33:08;;;;;;;7.25;4.85;;;30.20;99.90;;;;;;5114260;27;20343;-64
2022/08/25 10:35:52;;;;;;;6.00;5.40;;;30.30;99.90;;;;;;5113004;27;20262;-65
2022/08/25 10:38:32;;;;;;;7.40;5.07;;;30.30;99.90;;;;;;5103578;27;20047;-65
2022/08/25 10:41:07;;;;;;;6.15;4.57;;;30.10;99.90;;;;;;5096319;27;20038;-65
2022/08/25 10:45:41;;;;;;;6.38;4.85;;;30.30;99.90;;;;;;5131631;27;20270;-66
2022/08/25 10:47:33;;;;;;;8.02;5.20;;;30.40;99.90;;;;;;5109595;27;20548;-65
2022/08/25 10:50:28;;;;;;;6.95;4.70;;;30.30;99.90;;;;;;5131505;27;20039;-65
2022/08/25 10:53:26;;;;;;;5.65;4.50;;;30.50;99.90;;;;;;5103421;27;20398;-66
2022/08/25 10:56:19;;;;;;;6.80;3.75;;;30.60;99.90;;;;;;5117717;27;20362;-66
2022/08/25 10:59:23;;;;;;;5.07;3.92;;;30.70;99.90;;;;;;5112595;27;20043;-66
2022/08/25 11:02:27;;;;;;;8.70;4.00;;;30.70;99.90;;;;;;5111871;27;20781;-65
2022/08/25 11:05:07;;;;;;;5.75;3.70;;;30.60;99.90;;;;;;5128051;27;20293;-67
2022/08/25 11:07:36;;;;;;;4.60;3.20;;;30.70;99.90;;;;;;5112872;27;20043;-65
2022/08/25 11:10:09;;;;;;;6.25;3.53;;;30.80;99.90;;;;;;5132307;27;20528;-66
2022/08/25 11:12:41;;;;;;;7.80;3.33;;;31.10;99.90;;;;;;5114244;27;20042;-66
2022/08/25 11:15:39;;;;;;;5.90;3.28;;;31.20;99.90;;;;;;5112333;27;20076;-66
2022/08/25 11:18:11;;;;;;;10.88;3.25;;;31.30;99.90;;;;;;5111610;27;20089;-66
2022/08/25 11:20:56;;;;;;;7.57;3.38;;;31.50;99.90;;;;;;5112933;27;20034;-66
2022/08/25 11:23:32;;;;;;;4.55;2.53;;;31.70;99.90;;;;;;5111924;27;20054;-66
2022/08/25 11:26:05;;;;;;;6.70;2.78;;;31.90;99.90;;;;;;5094450;27;20503;-66
2022/08/25 11:28:47;;;;;;;3.80;1.90;;;31.60;99.90;;;;;;5111989;27;20787;-66
2022/08/25 11:31:14;;;;;;;5.55;2.08;;;31.60;98.80;;;;;;5110435;27;20383;-67
2022/08/25 11:33:40;;;;;;;5.40;1.80;;;31.80;99.90;;;;;;5104771;27;20558;-66
2022/08/25 11:36:18;;;;;;;4.22;1.83;;;31.90;99.60;;;;;;5114003;27;20125;-66
2022/08/25 11:39:15;;;;;;;3.40;1.67;;;32.00;97.80;;;;;;5114899;27;20107;-67
2022/08/25 11:42:11;;;;;;;5.88;1.58;;;32.30;96.40;;;;;;5103097;27;20042;-67
2022/08/25 11:45:14;;;;;;;4.72;2.08;;;32.30;94.60;;;;;;5112005;27;20039;-67
2022/08/25 11:47:42;;;;;;;4.43;1.75;;;32.30;95.40;;;;;;5110073;27;20054;-66
2022/08/25 11:50:35;;;;;;;3.45;1.50;;;32.30;96.00;;;;;;5110965;27;20095;-65
2022/08/25 11:53:10;;;;;;;4.40;1.85;;;32.00;95.40;;;;;;5131284;27;20034;-66
2022/08/25 11:55:49;;;;;;;4.70;1.80;;;31.80;97.10;;;;;;5112007;27;20042;-66
2022/08/25 11:58:40;;;;;;;4.85;2.00;;;31.80;96.90;;;;;;5111709;27;20321;-66
2022/08/25 12:01:37;;;;;;;4.40;1.65;;;31.90;94.40;;;;;;5099082;27;20050;-66
2022/08/25 12:04:40;;;;;;;7.00;1.85;;;32.00;93.80;;;;;;5112963;27;20049;-65
2022/08/25 12:07:07;;;;;;;4.07;1.80;;;32.00;93.80;;;;;;5113958;27;20038;-67
2022/08/25 12:09:53;;;;;;;5.15;1.88;;;32.00;91.60;;;;;;5111159;27;20058;-67
2022/08/25 12:12:35;;;;;;;3.75;1.70;;;32.00;91.10;;;;;;5093679;27;20439;-67
2022/08/25 12:15:26;;;;;;;4.80;2.10;;;31.90;91.80;;;;;;5113498;27;20046;-66
2022/08/25 12:18:15;;;;;;;4.90;2.30;;;31.90;93.00;;;;;;5113950;27;20099;-68
2022/08/25 12:20:53;;;;;;;3.72;1.70;;;31.60;94.00;;;;;;5114051;27;20046;-67
2022/08/25 12:23:31;;;;;;;5.38;1.90;;;31.60;92.10;;;;;;5097573;27;20354;-68
2022/08/25 12:26:30;;;;;;;6.80;2.00;;;31.60;90.50;;;;;;5114641;27;20496;-67
2022/08/25 12:29:23;;;;;;;2.42;1.92;;;31.80;91.80;;;;;;5076846;27;20373;-67
2022/08/25 12:32:26;;;;;;;4.05;1.73;;;31.80;89.70;;;;;;5114551;27;20700;-66
2022/08/25 12:35:11;;;;;;;3.33;2.00;;;31.90;90.70;;;;;;5113845;27;20535;-66
2022/08/25 12:38:17;;;;;;;4.80;2.03;;;32.10;87.40;;;;;;5113969;27;20043;-66
2022/08/25 12:40:43;;;;;;;3.38;2.03;;;32.20;88.50;;;;;;5132568;27;20054;-66
2022/08/25 12:43:28;;;;;;;4.80;1.77;;;32.10;88.10;;;;;;5115396;27;20344;-67
2022/08/25 12:46:19;;;;;;;4.80;1.75;;;32.10;88.00;;;;;;5137291;27;20042;-69
2022/08/25 12:49:03;;;;;;;4.27;1.77;;;32.40;85.50;;;;;;5118183;27;20315;-65
2022/08/25 12:51:32;;;;;;;6.57;2.17;;;32.40;84.90;;;;;;5101761;27;20042;-67
2022/08/25 12:54:09;;;;;;;2.38;1.50;;;32.70;86.80;;;;;;5118013;27;20094;-67
2022/08/25 12:56:41;;;;;;;6.35;1.80;;;32.60;87.10;;;;;;5137116;27;20192;-68
2022/08/25 12:59:33;;;;;;;4.20;1.60;;;32.30;84.30;;;;;;5136577;27;20034;-67
2022/08/25 13:02:21;;;;;;;3.28;1.70;;;31.90;80.00;;;;;;5080272;27;20583;-67
2022/08/25 13:05:18;;;;;;;2.33;1.65;;;32.20;83.30;;;;;;5116940;27;20046;-68
2022/08/25 13:08:12;;;;;;;2.65;1.60;;;32.40;75.80;;;;;;5117577;27;20058;-67
2022/08/25 13:10:46;;;;;;;3.42;1.80;;;32.50;76.10;;;;;;5118712;27;20129;-67
2022/08/25 13:13:18;;;;;;;5.70;1.98;;;32.70;78.40;;;;;;5119774;27;20057;-67
2022/08/25 13:15:55;;;;;;;2.92;1.42;;;32.60;77.70;;;;;;5115377;27;20047;-68